Time;durP1;ratioP1;P1;durP2;ratioP2;P2;SDS_P1;SDS_P2;PMS_P1;PMS_P2;Temp;Humidity;BMP_temperature;BMP_pressure;BME280_temperature;BME280_humidity;BME280_pressure;Samples;Min_cycle;Max_cycle;Signal;HPM_P1;HPM_P2
2022/07/29 00:01:06;;;;;;;3.75;2.40;;;;;;;31.36;43.99;96720.97;5074706;28;20029;-26
2022/07/29 00:03:31;;;;;;;4.57;2.25;;;;;;;31.32;44.35;96723.41;5074339;28;20024;-26
2022/07/29 00:05:57;;;;;;;2.60;2.15;;;;;;;31.34;43.80;96715.19;5074068;28;20130;-26
2022/07/29 00:08:22;;;;;;;4.20;2.38;;;;;;;31.25;43.83;96724.91;5074265;28;20024;-26
2022/07/29 00:10:47;;;;;;;4.07;2.60;;;;;;;31.31;44.00;96717.03;5074424;28;20032;-26
2022/07/29 00:13:13;;;;;;;5.28;2.50;;;;;;;31.27;43.88;96716.69;5074595;28;20067;-27
2022/07/29 00:15:38;;;;;;;4.50;2.33;;;;;;;31.25;44.16;96719.28;5074309;28;20085;-26
2022/07/29 00:18:04;;;;;;;2.83;2.33;;;;;;;31.29;43.51;96713.31;5074041;28;20108;-25
2022/07/29 00:20:29;;;;;;;3.40;2.60;;;;;;;31.27;43.63;96711.09;5074150;28;20053;-26
2022/07/29 00:22:55;;;;;;;4.50;2.50;;;;;;;31.23;43.98;96721.16;5074030;28;20516;-26
2022/07/29 00:25:20;;;;;;;4.53;2.05;;;;;;;31.25;43.75;96710.13;5073851;28;20032;-26
2022/07/29 00:27:46;;;;;;;5.65;2.50;;;;;;;31.14;43.60;96702.09;5073841;28;20030;-25
2022/07/29 00:30:12;;;;;;;3.55;2.28;;;;;;;31.14;43.50;96699.31;5073727;28;20502;-26
2022/07/29 00:32:39;;;;;;;5.15;2.50;;;;;;;31.14;44.27;96704.91;5073515;28;20025;-26
2022/07/29 00:37:49;;;;;;;3.03;2.30;;;;;;;31.15;43.39;96701.53;5073868;28;20032;-26
2022/07/29 00:40:15;;;;;;;2.95;2.13;;;;;;;31.13;43.82;96697.81;5073660;28;20024;-26
2022/07/29 00:42:47;;;;;;;3.78;2.65;;;;;;;31.15;43.05;96706.41;5073666;28;20025;-26
2022/07/29 00:45:13;;;;;;;4.07;2.40;;;;;;;31.14;43.75;96700.06;5073284;28;20392;-26
2022/07/29 00:47:39;;;;;;;2.22;2.03;;;;;;;31.15;43.73;96707.16;5073526;28;20039;-26
2022/07/29 00:50:07;;;;;;;4.30;2.17;;;;;;;31.07;43.30;96703.53;5073553;28;20107;-26
2022/07/29 00:52:35;;;;;;;3.40;2.63;;;;;;;31.06;43.49;96705.59;5073413;28;20480;-26
2022/07/29 00:55:02;;;;;;;4.25;2.45;;;;;;;31.03;43.30;96708.78;5072603;28;20028;-26
2022/07/29 00:57:27;;;;;;;4.07;2.42;;;;;;;31.13;43.06;96706.97;5073639;28;20429;-27
2022/07/29 00:59:56;;;;;;;3.50;2.17;;;;;;;31.18;43.21;96696.84;5073343;28;20028;-26
2022/07/29 01:02:21;;;;;;;4.22;2.60;;;;;;;31.04;43.33;96696.25;5073317;28;20028;-26
2022/07/29 01:04:48;;;;;;;2.17;1.90;;;;;;;31.15;42.91;96698.75;5073570;28;20034;-26
2022/07/29 01:07:13;;;;;;;3.00;2.22;;;;;;;31.05;43.01;96701.28;5073540;28;20097;-26
2022/07/29 01:09:40;;;;;;;4.20;2.45;;;;;;;31.08;43.08;96694.59;5073435;28;20029;-26
2022/07/29 01:12:07;;;;;;;4.40;2.25;;;;;;;31.14;43.19;96699.31;5073156;28;20024;-26
2022/07/29 01:14:34;;;;;;;3.72;2.33;;;;;;;31.08;43.29;96699.44;5073223;28;20044;-26
2022/07/29 01:17:11;;;;;;;4.38;2.30;;;;;;;31.03;43.74;96687.09;5073240;28;20074;-26
2022/07/29 01:19:55;;;;;;;4.30;2.30;;;;;;;30.99;43.39;96692.34;5073298;28;20031;-26
2022/07/29 01:22:27;;;;;;;3.85;2.25;;;;;;;30.99;43.59;96688.78;5070399;28;20405;-26
2022/07/29 01:25:29;;;;;;;3.33;2.33;;;;;;;31.08;42.83;96696.63;5071063;28;20028;-26
2022/07/29 01:28:34;;;;;;;3.97;2.25;;;;;;;30.99;43.44;96683.94;5073205;28;20029;-27
2022/07/29 01:31:02;;;;;;;2.58;2.17;;;;;;;30.98;42.81;96687.28;5073127;28;20062;-26
2022/07/29 01:33:48;;;;;;;2.53;2.08;;;;;;;30.96;42.76;96692.69;5073106;28;20077;-27
2022/07/29 01:36:20;;;;;;;4.25;2.10;;;;;;;30.93;42.85;96702.97;5073004;28;20016;-26
2022/07/29 01:38:56;;;;;;;3.35;2.30;;;;;;;30.97;43.26;96691.41;5073152;28;20021;-26
2022/07/29 01:41:23;;;;;;;3.35;2.22;;;;;;;31.01;43.01;96700.94;5073095;28;20047;-26
2022/07/29 01:44:02;;;;;;;3.20;2.55;;;;;;;30.91;42.85;96702.75;5073004;28;20154;-26
2022/07/29 01:46:34;;;;;;;4.22;2.60;;;;;;;30.91;42.61;96696.44;5073107;28;20052;-26
2022/07/29 01:49:05;;;;;;;;;;;;;;;30.96;42.96;96699.06;5073449;28;20028;-26
2022/07/29 01:51:35;;;;;;;2.80;2.10;;;;;;;30.97;42.49;96694.19;5073214;28;19909;-27
2022/07/29 01:54:06;;;;;;;3.05;2.17;;;;;;;30.95;42.55;96694.75;5072806;28;20427;-26
2022/07/29 01:56:33;;;;;;;4.13;2.30;;;;;;;30.87;42.71;96694.00;5073016;28;20073;-27
2022/07/29 01:59:00;;;;;;;3.33;2.00;;;;;;;30.99;43.09;96692.34;5072939;28;20431;-26
2022/07/29 02:01:27;;;;;;;6.20;2.30;;;;;;;30.95;43.13;96694.75;5072839;28;20053;-26
2022/07/29 02:03:54;;;;;;;4.28;2.38;;;;;;;30.95;42.95;96697.56;5072772;28;20025;-26
2022/07/29 02:06:23;;;;;;;3.05;2.20;;;;;;;30.93;42.60;96688.94;5074005;28;20048;-26
2022/07/29 02:08:52;;;;;;;3.35;2.10;;;;;;;30.90;43.06;96689.34;5076398;28;20052;-26
2022/07/29 02:11:17;;;;;;;3.63;2.45;;;;;;;30.89;42.68;96683.00;5076691;28;20039;-26
2022/07/29 02:13:45;;;;;;;3.30;2.13;;;;;;;30.90;42.90;96673.28;5076455;28;20029;-26
2022/07/29 02:16:12;;;;;;;4.45;2.30;;;;;;;30.92;42.65;96676.25;5076312;28;20462;-26
2022/07/29 02:18:40;;;;;;;3.20;1.90;;;;;;;30.90;42.67;96673.28;5076407;28;20475;-26
2022/07/29 02:21:07;;;;;;;2.00;1.80;;;;;;;30.89;43.07;96677.38;5076188;28;20031;-26
2022/07/29 02:23:36;;;;;;;4.15;2.25;;;;;;;30.94;42.44;96678.50;5076344;28;20036;-26
2022/07/29 02:26:02;;;;;;;4.28;2.33;;;;;;;31.05;42.66;96675.34;5076148;28;20024;-26
2022/07/29 02:28:30;;;;;;;3.55;2.33;;;;;;;30.95;42.54;96675.16;5076415;28;20387;-26
2022/07/29 02:31:00;;;;;;;4.70;2.88;;;;;;;30.99;42.25;96680.38;5075983;28;20032;-27
2022/07/29 02:33:27;;;;;;;4.88;2.50;;;;;;;30.96;42.87;96687.84;5076210;28;20024;-27
2022/07/29 02:35:54;;;;;;;5.15;2.38;;;;;;;30.94;42.46;96684.84;5075894;28;20021;-27
2022/07/29 02:41:12;;;;;;;4.80;2.20;;;;;;;30.98;42.75;96702.03;5075961;28;20027;-26
2022/07/29 02:43:39;;;;;;;5.20;2.60;;;;;;;30.99;42.58;96688.78;5075806;28;20033;-26
2022/07/29 02:46:08;;;;;;;3.80;2.40;;;;;;;30.98;42.52;96690.84;5075571;28;20086;-26
2022/07/29 02:48:40;;;;;;;5.10;2.30;;;;;;;30.96;42.93;96685.03;5075694;28;20028;-26
2022/07/29 02:51:19;;;;;;;3.67;2.58;;;;;;;30.83;43.35;96674.00;5075902;28;20024;-26
2022/07/29 02:53:51;;;;;;;3.65;2.05;;;;;;;30.93;43.08;96666.56;5075797;28;20389;-26
2022/07/29 02:56:25;;;;;;;3.80;2.50;;;;;;;30.93;42.70;96671.41;5075935;28;20099;-26
2022/07/29 02:58:55;;;;;;;4.88;2.65;;;;;;;30.97;43.27;96678.13;5075512;28;20384;-26
2022/07/29 03:01:23;;;;;;;3.20;2.10;;;;;;;30.96;42.56;96673.84;5075552;28;20031;-27
2022/07/29 03:03:52;;;;;;;4.65;2.00;;;;;;;30.97;43.01;96666.19;5075896;28;20021;-26
2022/07/29 03:06:20;;;;;;;4.63;2.38;;;;;;;30.91;42.70;96666.34;5075549;28;20082;-27
2022/07/29 03:08:46;;;;;;;3.53;2.17;;;;;;;30.99;42.80;96669.94;5075446;28;20024;-26
2022/07/29 03:11:13;;;;;;;4.60;2.30;;;;;;;31.03;42.28;96664.69;5075197;28;20024;-27
2022/07/29 03:13:39;;;;;;;3.35;2.13;;;;;;;31.03;42.26;96675.19;5075556;28;20028;-26
2022/07/29 03:16:06;;;;;;;4.18;2.40;;;;;;;30.89;43.07;96677.38;5075321;28;20474;-27
2022/07/29 03:21:56;;;;;;;4.57;2.97;;;;;;;30.94;42.34;96672.91;5074843;28;20075;-26
2022/07/29 03:24:33;;;;;;;3.90;2.30;;;;;;;30.96;42.74;96673.84;5075362;28;20027;-26
2022/07/29 03:26:59;;;;;;;4.28;2.40;;;;;;;31.01;42.26;96672.94;5074981;28;20431;-26
2022/07/29 03:29:25;;;;;;;4.32;2.03;;;;;;;30.99;42.48;96669.94;5074827;28;20028;-27
2022/07/29 03:31:51;;;;;;;4.15;2.53;;;;;;;30.95;42.93;96669.53;5074933;28;20513;-26
2022/07/29 03:34:17;;;;;;;3.70;2.30;;;;;;;30.96;42.92;96673.84;5074734;28;20411;-26
2022/07/29 03:36:43;;;;;;;3.45;2.45;;;;;;;30.98;42.37;96676.09;5074730;28;20174;-27
2022/07/29 03:39:10;;;;;;;3.78;2.17;;;;;;;30.92;43.01;96672.72;5074826;28;20107;-26
2022/07/29 03:41:38;;;;;;;4.47;2.70;;;;;;;30.90;43.07;96673.28;5074764;28;20032;-26
2022/07/29 03:44:07;;;;;;;6.57;2.55;;;;;;;30.93;42.50;96677.00;5074372;28;20493;-26
2022/07/29 03:46:35;;;;;;;4.88;2.70;;;;;;;30.95;42.85;96680.75;5074892;28;20107;-26
2022/07/29 03:49:04;;;;;;;5.43;2.60;;;;;;;30.95;42.62;96686.34;5074701;28;20028;-26
2022/07/29 03:51:30;;;;;;;4.90;2.53;;;;;;;30.90;42.49;96678.13;5074620;28;20022;-26
2022/07/29 03:53:56;;;;;;;3.25;2.75;;;;;;;30.91;42.92;96674.75;5074547;28;20024;-26
2022/07/29 03:56:23;;;;;;;4.18;2.42;;;;;;;30.95;42.27;96671.59;5074293;28;20040;-27
2022/07/29 03:58:51;;;;;;;3.78;2.30;;;;;;;30.95;42.21;96680.00;5074366;28;20100;-26
2022/07/29 04:01:18;;;;;;;3.60;2.35;;;;;;;30.95;42.80;96689.16;5074491;28;20027;-28
2022/07/29 04:03:47;;;;;;;5.50;2.85;;;;;;;30.88;42.58;96689.91;5074331;28;20054;-27
2022/07/29 04:06:12;;;;;;;2.67;2.25;;;;;;;30.90;42.93;96690.09;5074195;28;20020;-27
2022/07/29 04:08:38;;;;;;;3.78;2.33;;;;;;;30.87;42.31;96699.59;5074126;28;20474;-26
2022/07/29 04:11:05;;;;;;;4.60;2.63;;;;;;;30.97;42.53;96706.16;5074107;28;20021;-26
2022/07/29 04:13:32;;;;;;;3.72;2.08;;;;;;;30.90;42.49;96704.09;5074262;28;20043;-26
2022/07/29 04:15:57;;;;;;;7.32;2.67;;;;;;;30.91;42.53;96710.44;5073950;28;20086;-26
2022/07/29 04:18:24;;;;;;;3.42;2.45;;;;;;;30.93;42.30;96707.81;5074067;28;20032;-27
2022/07/29 04:20:49;;;;;;;3.92;2.50;;;;;;;30.90;42.60;96706.16;5074082;28;20070;-26
2022/07/29 04:23:15;;;;;;;3.88;2.58;;;;;;;30.88;42.22;96709.50;5073957;28;20029;-26
2022/07/29 04:25:42;;;;;;;5.15;2.55;;;;;;;30.85;42.53;96713.41;5073630;28;20409;-27
2022/07/29 04:28:09;;;;;;;3.80;2.30;;;;;;;30.86;42.81;96711.34;5074041;28;20099;-27
2022/07/29 04:30:37;;;;;;;3.90;2.40;;;;;;;30.82;42.71;96722.16;5072822;28;20067;-27
2022/07/29 04:33:04;;;;;;;3.47;2.80;;;;;;;30.84;42.65;96719.56;5073941;28;20032;-27
2022/07/29 04:35:30;;;;;;;4.90;2.85;;;;;;;30.86;42.73;96716.94;5073902;28;20055;-26
2022/07/29 04:37:56;;;;;;;5.32;2.63;;;;;;;30.84;42.47;96714.72;5073529;28;20032;-26
2022/07/29 04:40:21;;;;;;;5.15;2.90;;;;;;;30.82;43.15;96722.91;5073763;28;20025;-26
2022/07/29 04:42:47;;;;;;;4.55;2.30;;;;;;;30.81;42.67;96724.22;5073593;28;20482;-27
2022/07/29 04:45:12;;;;;;;4.95;2.70;;;;;;;30.79;42.67;96732.41;5073295;28;20047;-28
2022/07/29 04:47:38;;;;;;;5.32;2.90;;;;;;;30.83;42.59;96735.59;5073479;28;20025;-26
2022/07/29 04:50:05;;;;;;;6.53;2.67;;;;;;;30.82;42.97;96728.50;5073542;28;20078;-27
2022/07/29 04:52:31;;;;;;;3.83;2.50;;;;;;;30.82;42.81;96734.09;5073388;28;20379;-26
2022/07/29 04:54:56;;;;;;;4.80;2.58;;;;;;;30.80;43.18;96725.50;5073495;28;20024;-26
2022/07/29 04:57:22;;;;;;;5.65;2.42;;;;;;;30.82;43.18;96724.97;5073365;28;20103;-26
2022/07/29 04:59:48;;;;;;;4.13;2.40;;;;;;;30.78;42.82;96728.16;5072749;28;20515;-26
2022/07/29 05:02:13;;;;;;;4.22;3.25;;;;;;;30.77;43.38;96732.25;5073440;28;20032;-26
2022/07/29 05:04:39;;;;;;;4.55;2.72;;;;;;;30.77;42.82;96721.03;5073504;28;20029;-26
2022/07/29 05:07:04;;;;;;;6.10;2.80;;;;;;;30.83;43.22;96735.59;5073235;28;20082;-26
2022/07/29 05:09:31;;;;;;;6.15;2.60;;;;;;;30.81;43.37;96731.88;5073322;28;20028;-26
2022/07/29 05:11:57;;;;;;;6.25;2.67;;;;;;;30.76;43.57;96735.59;5073158;28;20024;-27
2022/07/29 05:14:23;;;;;;;6.13;2.65;;;;;;;30.78;43.03;96744.94;5073233;28;20097;-26
2022/07/29 05:16:50;;;;;;;3.05;2.53;;;;;;;30.80;43.11;96747.16;5073257;28;20039;-26
2022/07/29 05:19:16;;;;;;;4.55;2.88;;;;;;;30.76;43.17;96744.00;5073197;28;20107;-28
2022/07/29 05:21:42;;;;;;;4.18;3.17;;;;;;;30.76;43.76;96744.75;5073202;28;20104;-27
2022/07/29 05:24:07;;;;;;;5.20;2.70;;;;;;;30.76;43.11;96738.41;5073074;28;20485;-26
2022/07/29 05:26:33;;;;;;;6.20;2.78;;;;;;;30.78;43.77;96744.19;5073143;28;20100;-27
2022/07/29 05:28:58;;;;;;;4.95;2.72;;;;;;;30.77;43.64;96742.69;5073239;28;20456;-26
2022/07/29 05:31:24;;;;;;;7.75;2.40;;;;;;;30.73;43.41;96743.06;5071848;28;20021;-26
2022/07/29 05:33:50;;;;;;;6.70;2.97;;;;;;;30.75;43.36;96746.03;5073139;28;20112;-28
2022/07/29 05:36:15;;;;;;;5.40;2.63;;;;;;;30.74;43.93;96752.94;5073103;28;20100;-26
2022/07/29 05:38:40;;;;;;;4.95;2.50;;;;;;;30.74;43.83;96764.16;5073197;28;20033;-27
2022/07/29 05:41:06;;;;;;;4.47;2.80;;;;;;;30.75;43.98;96742.50;5073879;28;20039;-27
2022/07/29 05:43:32;;;;;;;6.28;2.80;;;;;;;30.75;44.22;96745.28;5077122;28;20385;-27
2022/07/29 05:45:58;;;;;;;6.82;3.35;;;;;;;30.75;44.06;96745.28;5076730;28;20044;-28
2022/07/29 05:48:24;;;;;;;4.80;3.38;;;;;;;30.72;44.12;96763.94;5076852;28;20028;-26
2022/07/29 05:50:49;;;;;;;4.65;2.88;;;;;;;30.76;44.07;96758.00;5076837;28;20055;-26
2022/07/29 05:53:15;;;;;;;6.47;3.15;;;;;;;30.76;44.37;96764.34;5077025;28;20471;-26
2022/07/29 05:55:42;;;;;;;4.40;2.70;;;;;;;30.69;44.39;96768.59;5076422;28;20073;-26
2022/07/29 05:58:07;;;;;;;4.93;2.50;;;;;;;30.71;44.54;96768.78;5076890;28;20493;-26
2022/07/29 06:00:33;;;;;;;7.15;3.40;;;;;;;30.73;44.32;96765.44;5076631;28;20025;-26
2022/07/29 06:02:58;;;;;;;4.75;3.40;;;;;;;30.74;44.48;96771.78;5076847;28;20382;-26
2022/07/29 06:05:23;;;;;;;5.65;3.10;;;;;;;30.78;43.77;96758.94;5076546;28;20526;-27
2022/07/29 06:07:49;;;;;;;5.22;3.08;;;;;;;30.73;44.12;96759.84;5076547;28;20436;-26
2022/07/29 06:10:14;;;;;;;6.18;3.42;;;;;;;30.68;44.37;96764.28;5076787;28;20471;-26
2022/07/29 06:12:40;;;;;;;6.30;3.00;;;;;;;30.68;44.54;96760.75;5076492;28;20033;-26
2022/07/29 06:15:06;;;;;;;5.80;3.03;;;;;;;30.68;44.53;96763.56;5076280;28;20078;-26
2022/07/29 06:17:32;;;;;;;5.93;3.40;;;;;;;30.70;44.34;96767.28;5076834;28;20646;-26
2022/07/29 06:19:57;;;;;;;7.30;3.35;;;;;;;30.58;45.16;96759.78;5076248;28;20056;-26
2022/07/29 06:22:23;;;;;;;5.43;3.20;;;;;;;30.58;44.81;96765.38;5076344;28;20056;-26
2022/07/29 06:24:49;;;;;;;4.35;3.15;;;;;;;30.64;44.53;96769.53;5076360;28;20024;-27
2022/07/29 06:27:16;;;;;;;7.38;3.40;;;;;;;30.67;44.52;96773.25;5076276;28;20056;-26
2022/07/29 06:29:41;;;;;;;6.78;3.05;;;;;;;30.60;45.30;96771.19;5076176;28;20028;-26
2022/07/29 06:32:08;;;;;;;5.95;3.25;;;;;;;30.59;44.57;96773.22;5076355;28;20364;-28
2022/07/29 06:34:34;;;;;;;4.90;3.35;;;;;;;30.60;44.66;96780.31;5076204;28;20462;-26
2022/07/29 06:37:00;;;;;;;5.05;3.35;;;;;;;30.60;45.14;96780.31;5075901;28;20036;-26
2022/07/29 06:39:25;;;;;;;3.13;2.80;;;;;;;30.57;45.21;96791.88;5095725;28;20057;-26
2022/07/29 06:41:51;;;;;;;3.70;2.85;;;;;;;30.62;44.69;96790.97;5096181;28;20081;-26
2022/07/29 06:44:17;;;;;;;5.75;3.22;;;;;;;30.63;44.57;96795.28;5095540;28;20055;-26
2022/07/29 06:46:43;;;;;;;4.32;3.08;;;;;;;30.57;44.82;96803.06;5096193;28;20028;-26
2022/07/29 06:49:09;;;;;;;4.88;3.00;;;;;;;30.58;45.13;96807.38;5094646;28;20449;-26
2022/07/29 06:51:35;;;;;;;5.53;3.30;;;;;;;30.49;45.02;96808.59;5095956;28;20103;-26
2022/07/29 06:54:02;;;;;;;4.97;3.10;;;;;;;30.53;44.83;96808.25;5094989;28;20028;-26
2022/07/29 06:56:29;;;;;;;6.53;3.15;;;;;;;30.60;44.88;96805.53;5096048;28;20016;-26
2022/07/29 06:58:54;;;;;;;4.13;2.72;;;;;;;30.56;45.14;96812.75;5095791;28;20393;-26
2022/07/29 07:01:20;;;;;;;5.85;3.20;;;;;;;30.43;45.38;96816.41;5095937;28;20024;-26
2022/07/29 07:03:45;;;;;;;6.20;3.17;;;;;;;30.49;45.02;96814.22;5095501;28;20032;-26
2022/07/29 07:06:11;;;;;;;3.28;2.97;;;;;;;30.56;45.14;96810.72;5095720;28;20024;-26
2022/07/29 07:08:37;;;;;;;6.05;2.88;;;;;;;30.62;44.48;96821.75;5095496;28;20051;-26
2022/07/29 07:11:03;;;;;;;5.78;2.75;;;;;;;30.59;44.71;96820.06;5095558;28;20024;-27
2022/07/29 07:13:33;;;;;;;3.20;2.70;;;;;;;30.58;45.15;96824.16;5095610;28;20027;-27
2022/07/29 07:15:59;;;;;;;3.67;2.47;;;;;;;30.56;44.75;96819.09;5095700;28;20496;-26
2022/07/29 07:18:24;;;;;;;5.22;3.03;;;;;;;30.56;44.97;96818.34;5095548;28;20103;-26
2022/07/29 07:20:50;;;;;;;3.58;2.70;;;;;;;30.57;45.04;96822.66;5095371;28;20020;-26
2022/07/29 07:23:15;;;;;;;3.65;2.92;;;;;;;30.56;44.81;96824.72;5095475;28;20026;-27
2022/07/29 07:25:41;;;;;;;4.95;3.17;;;;;;;30.56;44.83;96824.72;5095232;28;20027;-26
2022/07/29 07:28:07;;;;;;;5.20;2.95;;;;;;;30.60;44.63;96824.38;5095405;28;20028;-26
2022/07/29 07:30:32;;;;;;;6.05;2.97;;;;;;;30.55;44.83;96837.19;5095259;28;20069;-26
2022/07/29 07:32:59;;;;;;;4.93;3.10;;;;;;;30.56;45.01;96841.50;5095571;28;20028;-26
2022/07/29 07:35:26;;;;;;;8.27;3.20;;;;;;;30.55;44.81;96830.84;5095180;28;20466;-26
2022/07/29 07:37:51;;;;;;;4.47;3.10;;;;;;;30.55;45.18;96833.66;5094914;28;20053;-26
2022/07/29 07:40:17;;;;;;;5.70;2.72;;;;;;;30.60;45.01;96835.56;5093612;28;20030;-26
2022/07/29 07:42:42;;;;;;;3.03;2.72;;;;;;;30.61;44.98;96825.88;5095058;28;20058;-26
2022/07/29 07:45:11;;;;;;;3.72;2.65;;;;;;;30.56;45.04;96830.31;5094265;28;20112;-28
2022/07/29 07:47:38;;;;;;;4.78;3.40;;;;;;;30.64;44.40;96830.38;5092719;28;20024;-27
2022/07/29 07:50:06;;;;;;;4.40;2.45;;;;;;;30.61;44.43;96834.25;5094994;28;20051;-26
2022/07/29 07:52:32;;;;;;;6.70;2.90;;;;;;;30.56;44.57;96835.16;5094793;28;20066;-27
2022/07/29 07:54:58;;;;;;;4.20;3.40;;;;;;;30.59;44.41;96834.06;5094721;28;20027;-26
2022/07/29 07:57:23;;;;;;;3.63;3.10;;;;;;;30.61;44.91;96834.25;5095110;28;20024;-26
2022/07/29 07:59:49;;;;;;;3.38;2.75;;;;;;;30.57;44.80;96836.66;5094480;28;20020;-26
2022/07/29 08:02:14;;;;;;;4.57;3.05;;;;;;;30.59;44.55;96831.25;5094580;28;20366;-26
2022/07/29 08:04:40;;;;;;;6.10;3.20;;;;;;;30.58;44.63;96832.56;5094161;28;20493;-26
2022/07/29 08:07:07;;;;;;;5.13;2.92;;;;;;;30.59;45.02;96828.47;5094328;28;20533;-26
2022/07/29 08:09:34;;;;;;;5.13;3.05;;;;;;;30.60;44.66;96829.97;5094621;28;20040;-26
2022/07/29 08:12:02;;;;;;;3.47;2.65;;;;;;;30.41;45.19;96835.06;5094482;28;20024;-26
2022/07/29 08:14:27;;;;;;;6.03;3.10;;;;;;;30.46;45.07;96837.69;5094399;28;20492;-26
2022/07/29 08:16:53;;;;;;;4.80;2.97;;;;;;;30.52;44.89;96834.75;5094420;28;20019;-26
2022/07/29 08:19:19;;;;;;;5.60;3.40;;;;;;;30.53;44.73;96833.44;5094262;28;20107;-26
2022/07/29 08:21:44;;;;;;;4.40;2.63;;;;;;;30.41;45.12;96835.06;5094072;28;20052;-26
2022/07/29 08:26:53;;;;;;;4.10;2.92;;;;;;;30.48;45.08;96842.75;5093735;28;20115;-26
2022/07/29 08:29:19;;;;;;;6.05;3.15;;;;;;;30.55;44.65;96836.44;5094146;28;20056;-26
2022/07/29 08:31:45;;;;;;;4.35;3.10;;;;;;;30.53;44.67;96837.03;5094097;28;20024;-26
2022/07/29 08:34:11;;;;;;;4.38;2.83;;;;;;;30.54;44.65;96837.78;5094049;28;20101;-26
2022/07/29 08:36:38;;;;;;;6.20;3.20;;;;;;;30.53;44.97;96836.25;5094019;28;20028;-26
2022/07/29 08:39:04;;;;;;;5.18;2.83;;;;;;;30.45;45.14;96841.78;5094033;28;20070;-26
2022/07/29 08:41:31;;;;;;;4.05;2.90;;;;;;;30.25;45.62;96842.59;5093992;28;20024;-26
2022/07/29 08:43:56;;;;;;;4.65;2.80;;;;;;;30.33;45.28;96846.94;5093473;28;20467;-27
2022/07/29 08:46:22;;;;;;;4.82;2.90;;;;;;;30.38;44.85;96836.91;5094181;28;20024;-27
2022/07/29 08:48:48;;;;;;;4.53;3.20;;;;;;;30.52;44.35;96845.94;5094043;28;20477;-26
2022/07/29 08:51:16;;;;;;;10.27;3.28;;;;;;;29.55;46.84;96840.50;5093680;28;20501;-28
2022/07/29 08:53:44;;;;;;;8.00;2.85;;;;;;;29.97;45.82;96843.31;5093999;28;20024;-29
2022/07/29 08:56:13;;;;;;;7.60;3.28;;;;;;;30.07;45.22;96835.94;5093839;28;20094;-28
2022/07/29 08:58:40;;;;;;;4.80;2.92;;;;;;;30.03;44.97;96837.59;5093853;28;20020;-28
2022/07/29 09:01:07;;;;;;;4.93;3.58;;;;;;;30.27;44.49;96837.97;5093623;28;20043;-28
2022/07/29 09:03:35;;;;;;;5.80;3.08;;;;;;;30.30;44.22;96845.22;5093861;28;20024;-28
2022/07/29 09:06:02;;;;;;;7.30;3.03;;;;;;;30.33;44.25;96846.94;5092186;28;20035;-28
2022/07/29 09:08:30;;;;;;;5.60;3.50;;;;;;;30.39;44.47;96838.41;5093545;28;20031;-28
2022/07/29 09:10:56;;;;;;;5.97;3.25;;;;;;;30.34;44.39;96837.25;5093444;28;20028;-28
2022/07/29 09:13:22;;;;;;;6.70;3.50;;;;;;;30.32;43.87;96836.28;5093737;28;20042;-28
2022/07/29 09:15:48;;;;;;;4.97;3.25;;;;;;;30.22;44.41;96830.44;5093036;28;20021;-28
2022/07/29 09:18:35;;;;;;;4.68;3.28;;;;;;;30.10;44.31;96831.28;5093617;28;20500;-28
2022/07/29 09:24:05;;;;;;;7.00;3.38;;;;;;;30.09;44.23;96821.41;5093792;28;20371;-28
2022/07/29 09:26:31;;;;;;;5.22;2.95;;;;;;;29.94;44.60;96819.97;5093245;28;20024;-29
2022/07/29 09:28:58;;;;;;;5.43;3.13;;;;;;;29.82;44.49;96821.53;5093262;28;20051;-28
2022/07/29 09:31:35;;;;;;;6.72;3.15;;;;;;;30.04;43.94;96820.28;5093424;28;20048;-28
2022/07/29 09:34:02;;;;;;;4.47;2.97;;;;;;;30.13;43.58;96811.38;5093251;28;20085;-28
2022/07/29 09:36:27;;;;;;;4.90;3.13;;;;;;;29.89;44.51;96817.31;5093580;28;20024;-28
2022/07/29 09:39:00;;;;;;;7.40;3.20;;;;;;;30.17;43.70;96813.81;5093272;28;20028;-28
2022/07/29 09:41:30;;;;;;;4.07;3.15;;;;;;;30.13;43.60;96807.81;5093160;28;20019;-28
2022/07/29 09:43:58;;;;;;;5.10;3.22;;;;;;;30.21;43.85;96806.56;5093074;28;20028;-28
2022/07/29 09:46:24;;;;;;;6.03;3.28;;;;;;;30.27;43.82;96803.63;5091944;28;20446;-28
2022/07/29 09:49:07;;;;;;;7.38;3.20;;;;;;;30.12;43.41;96806.31;5093071;28;20024;-28
2022/07/29 09:51:32;;;;;;;;;;;;;;;30.16;43.59;96801.91;5092561;28;20062;-28
2022/07/29 09:54:00;;;;;;;4.47;3.20;;;;;;;30.27;43.39;96804.38;5093226;28;19955;-29
2022/07/29 09:56:41;;;;;;;5.35;3.00;;;;;;;30.30;43.53;96794.88;5093180;28;20024;-28
2022/07/29 09:59:08;;;;;;;5.93;3.30;;;;;;;30.11;43.67;96805.56;5093095;28;20481;-29
2022/07/29 10:01:35;;;;;;;6.38;3.25;;;;;;;30.10;43.72;96794.94;5091956;28;20424;-28
2022/07/29 10:04:01;;;;;;;3.90;3.13;;;;;;;29.85;43.57;96800.13;5093286;28;20115;-28
2022/07/29 10:06:27;;;;;;;6.97;3.17;;;;;;;30.00;43.46;96791.88;5093011;28;20074;-28
2022/07/29 10:08:54;;;;;;;5.13;3.08;;;;;;;30.23;43.27;96790.00;5092899;28;20466;-28
2022/07/29 10:11:19;;;;;;;5.22;3.30;;;;;;;30.26;42.84;96783.31;5093033;28;20611;-28
2022/07/29 10:13:47;;;;;;;9.30;3.63;;;;;;;30.25;42.79;96790.19;5092879;28;20046;-29
2022/07/29 10:16:14;;;;;;;5.65;3.83;;;;;;;30.33;43.01;96782.59;5092906;28;20059;-28
2022/07/29 10:18:41;;;;;;;7.22;3.45;;;;;;;29.98;43.42;96784.03;5092905;28;20069;-28
2022/07/29 10:21:07;;;;;;;5.80;3.35;;;;;;;30.15;43.11;96778.00;5092893;28;20022;-28
2022/07/29 10:23:35;;;;;;;5.57;3.15;;;;;;;30.25;42.64;96787.41;5092752;28;20020;-29
2022/07/29 10:26:01;;;;;;;8.70;3.50;;;;;;;30.28;42.89;96789.09;5092746;28;20024;-29
2022/07/29 10:28:27;;;;;;;8.43;3.35;;;;;;;30.31;42.84;96781.63;5095868;28;20032;-29
2022/07/29 10:31:01;;;;;;;3.75;3.22;;;;;;;30.31;43.04;96782.38;5096462;28;20047;-28
2022/07/29 10:33:48;;;;;;;5.72;3.13;;;;;;;30.31;42.55;96787.97;5096581;28;20039;-28
2022/07/29 10:36:57;;;;;;;5.75;3.28;;;;;;;29.98;43.39;96784.03;5096309;28;20020;-28
2022/07/29 10:39:58;;;;;;;6.53;3.15;;;;;;;30.27;43.04;96786.84;5096310;28;20024;-28
2022/07/29 10:42:27;;;;;;;6.53;3.38;;;;;;;30.11;43.38;96782.44;5096352;28;20019;-28
2022/07/29 10:44:54;;;;;;;8.10;3.35;;;;;;;30.04;43.35;96775.53;5095999;28;20040;-28
2022/07/29 10:47:24;;;;;;;5.35;3.17;;;;;;;30.23;43.21;96764.81;5096091;28;20048;-29
2022/07/29 10:49:59;;;;;;;7.07;3.50;;;;;;;30.31;42.59;96762.78;5096095;28;20024;-28
2022/07/29 10:52:45;;;;;;;4.35;3.00;;;;;;;30.00;43.09;96769.53;5095947;28;20359;-28
2022/07/29 10:55:31;;;;;;;4.78;3.60;;;;;;;30.22;42.60;96765.34;5096081;28;20016;-30
2022/07/29 10:58:14;;;;;;;4.85;3.20;;;;;;;30.26;42.59;96760.91;5096055;28;20031;-28
2022/07/29 11:00:39;;;;;;;7.22;3.30;;;;;;;30.27;42.92;96764.47;5096094;28;20027;-28
2022/07/29 11:03:05;;;;;;;5.75;3.17;;;;;;;30.24;42.53;96769.09;5095770;28;20020;-28
2022/07/29 11:05:56;;;;;;;8.13;3.35;;;;;;;30.22;42.97;96766.09;5095859;28;20020;-28
2022/07/29 11:08:23;;;;;;;6.15;3.58;;;;;;;29.92;43.74;96763.81;5095802;28;20048;-28
2022/07/29 11:11:12;;;;;;;8.50;7.22;;;;;;;29.76;43.87;96762.25;5095533;28;20032;-29
2022/07/29 11:13:46;;;;;;;6.38;4.18;;;;;;;29.99;43.28;96759.63;5091536;28;20490;-29
2022/07/29 11:16:12;;;;;;;10.65;5.05;;;;;;;29.75;42.08;96752.34;5095567;28;20023;-28
2022/07/29 11:19:12;;;;;;;10.48;3.92;;;;;;;30.15;42.36;96752.84;5095876;28;20362;-29
2022/07/29 11:21:40;;;;;;;7.13;4.45;;;;;;;30.19;42.31;96749.66;5095357;28;20024;-28
2022/07/29 11:24:17;;;;;;;6.18;4.43;;;;;;;30.13;41.47;96741.44;5095382;28;20089;-28
2022/07/29 11:26:43;;;;;;;6.05;4.60;;;;;;;30.16;42.48;96737.56;5095409;28;20024;-30
2022/07/29 11:29:24;;;;;;;7.63;4.45;;;;;;;30.27;42.29;96742.84;5095318;28;20423;-29
2022/07/29 11:31:55;;;;;;;7.65;4.25;;;;;;;30.33;41.75;96734.25;5095214;28;20027;-28
2022/07/29 11:34:29;;;;;;;5.97;4.18;;;;;;;30.29;41.88;96751.41;5095294;28;20063;-29
2022/07/29 11:37:10;;;;;;;4.75;4.35;;;;;;;30.32;41.72;96741.91;5095308;28;20031;-28
2022/07/29 11:39:38;;;;;;;5.47;4.32;;;;;;;30.35;41.47;96740.06;5094685;28;20024;-28
2022/07/29 11:42:22;;;;;;;6.03;3.92;;;;;;;30.29;41.52;96748.59;5095132;28;20027;-29
2022/07/29 11:44:58;;;;;;;6.45;4.20;;;;;;;30.24;41.29;96754.38;5094640;28;20036;-28
2022/07/29 11:47:28;;;;;;;5.65;4.10;;;;;;;30.26;40.93;96744.13;5094953;28;20028;-28
2022/07/29 11:49:57;;;;;;;6.38;4.00;;;;;;;30.25;41.00;96745.44;5095104;28;20034;-29
2022/07/29 11:52:31;;;;;;;5.55;3.97;;;;;;;30.32;40.70;96749.56;5094996;28;20055;-28
2022/07/29 11:55:00;;;;;;;5.03;3.75;;;;;;;30.37;40.13;96743.06;5094844;28;20031;-29